Time;durP1;ratioP1;P1;durP2;ratioP2;P2;SDS_P1;SDS_P2;PMS_P1;PMS_P2;Temp;Humidity;BMP_temperature;BMP_pressure;BME280_temperature;BME280_humidity;BME280_pressure;Samples;Min_cycle;Max_cycle;Signal;HPM_P1;HPM_P2
2024/02/28 00:01:51;;;;;;;18.15;5.50;;;;;;;5.31;97.36;101655.06;5060475;28;20044;-69
2024/02/28 00:04:19;;;;;;;13.35;5.72;;;;;;;5.17;97.63;101647.50;5052332;28;20061;-67
2024/02/28 00:06:47;;;;;;;22.67;5.75;;;;;;;5.26;98.10;101643.25;5053939;28;20516;-68
2024/02/28 00:09:14;;;;;;;14.07;4.88;;;;;;;5.49;96.83;101643.78;5063316;28;20048;-69
2024/02/28 00:11:46;;;;;;;14.73;5.15;;;;;;;5.46;96.85;101646.19;5050280;28;20515;-67
2024/02/28 00:14:14;;;;;;;15.57;5.40;;;;;;;5.30;97.47;101647.13;5064198;28;20436;-71
2024/02/28 00:16:46;;;;;;;17.45;6.72;;;;;;;5.42;97.44;101643.16;5040648;28;20053;-70
2024/02/28 00:19:13;;;;;;;14.43;5.32;;;;;;;5.79;96.64;101636.97;5064492;28;20064;-70
2024/02/28 00:21:41;;;;;;;17.55;5.07;;;;;;;5.82;95.23;101642.75;5065714;28;20049;-70
2024/02/28 00:24:09;;;;;;;14.82;5.45;;;;;;;5.69;95.08;101640.44;5058231;28;20060;-67
2024/02/28 00:26:43;;;;;;;17.63;5.40;;;;;;;5.14;96.80;101635.22;5056578;28;20053;-70
2024/02/28 00:29:11;;;;;;;19.20;5.57;;;;;;;5.35;98.51;101636.25;5065684;28;20056;-70
2024/02/28 00:31:38;;;;;;;15.05;5.72;;;;;;;5.40;98.54;101639.06;5066240;28;20047;-69
2024/02/28 00:34:08;;;;;;;13.45;5.00;;;;;;;5.41;97.55;101637.94;5051752;28;20057;-69
2024/02/28 00:36:36;;;;;;;21.50;5.85;;;;;;;5.48;97.78;101641.31;5061613;28;20057;-69
2024/02/28 00:39:21;;;;;;;16.08;5.03;;;;;;;5.47;97.34;101636.94;5063179;28;20059;-68
2024/02/28 00:41:49;;;;;;;11.35;4.80;;;;;;;5.28;97.98;101635.63;5066612;28;20052;-68
2024/02/28 00:44:16;;;;;;;12.07;5.10;;;;;;;5.28;98.07;101641.91;5054652;28;20044;-68
2024/02/28 00:46:44;;;;;;;18.80;5.32;;;;;;;5.22;99.13;101648.41;5068785;28;20048;-69
2024/02/28 00:49:11;;;;;;;12.30;5.25;;;;;;;5.41;98.04;101654.34;5042569;28;20056;-69
2024/02/28 00:51:38;;;;;;;19.27;6.20;;;;;;;5.23;98.64;101660.97;5049809;28;20068;-69
2024/02/28 00:54:08;;;;;;;15.43;5.78;;;;;;;5.32;98.64;101651.25;5061258;28;20049;-68
2024/02/28 00:56:35;;;;;;;21.15;5.80;;;;;;;5.15;98.88;101657.88;5058193;28;20521;-69
2024/02/28 00:59:02;;;;;;;14.00;5.10;;;;;;;5.06;100.00;101649.28;5066376;28;20461;-68
2024/02/28 01:01:30;;;;;;;14.18;5.57;;;;;;;5.11;99.97;101651.28;5049623;28;20053;-69
2024/02/28 01:03:57;;;;;;;12.40;5.10;;;;;;;5.12;100.00;101655.66;5056382;28;20052;-68
2024/02/28 01:06:24;;;;;;;18.75;5.88;;;;;;;5.17;99.72;101661.16;5065074;28;20499;-69
2024/02/28 01:08:52;;;;;;;18.05;5.90;;;;;;;5.07;100.00;101656.44;5065655;28;20052;-69
2024/02/28 01:11:19;;;;;;;16.63;6.20;;;;;;;5.26;99.57;101651.44;5070274;28;20044;-70
2024/02/28 01:13:47;;;;;;;13.90;5.75;;;;;;;4.89;100.00;101648.53;5064563;28;20051;-70
2024/02/28 01:16:14;;;;;;;18.83;6.45;;;;;;;4.81;100.00;101638.06;5070011;28;20048;-69
2024/02/28 01:18:41;;;;;;;15.23;5.55;;;;;;;4.99;100.00;101640.47;5072009;28;20048;-68
2024/02/28 01:21:09;;;;;;;16.15;5.80;;;;;;;5.00;100.00;101635.84;5076248;28;20052;-68
2024/02/28 01:23:36;;;;;;;18.83;6.63;;;;;;;4.93;100.00;101646.13;5060563;28;20122;-69
2024/02/28 01:26:05;;;;;;;15.55;5.88;;;;;;;5.08;100.00;101641.69;5066706;28;20052;-68
2024/02/28 01:28:33;;;;;;;16.67;6.95;;;;;;;5.11;100.00;101643.09;5064935;28;20052;-69
2024/02/28 01:31:01;;;;;;;18.50;6.43;;;;;;;5.46;100.00;101638.00;5077298;28;20044;-68
2024/02/28 01:33:28;;;;;;;15.25;6.15;;;;;;;5.12;99.98;101642.00;5052036;28;20057;-68
2024/02/28 01:35:56;;;;;;;17.92;6.53;;;;;;;5.08;100.00;101635.38;5036592;28;20060;-68
2024/02/28 01:38:26;;;;;;;;;;;;;;;5.38;100.00;101639.31;5068125;28;20158;-68
2024/02/28 01:40:54;;;;;;;16.88;6.05;;;;;;;5.26;99.05;101640.53;5063949;28;19940;-68
2024/02/28 01:43:21;;;;;;;16.58;6.43;;;;;;;5.56;100.00;101633.47;5065217;28;20061;-68
2024/02/28 01:45:49;;;;;;;15.68;6.78;;;;;;;5.82;97.87;101644.66;5071702;28;20439;-69
2024/02/28 01:48:17;;;;;;;16.88;6.43;;;;;;;5.75;96.98;101644.88;5053506;28;20055;-70
2024/02/28 01:50:45;;;;;;;15.43;5.88;;;;;;;6.35;95.53;101641.84;5044946;28;20061;-69
2024/02/28 01:53:13;;;;;;;17.52;5.75;;;;;;;6.18;92.83;101647.47;5068025;28;20056;-69
2024/02/28 01:55:42;;;;;;;15.25;5.85;;;;;;;6.17;93.51;101651.28;5071626;28;20558;-69
2024/02/28 01:58:10;;;;;;;13.85;5.72;;;;;;;5.82;94.03;101656.44;5069197;28;20056;-69
2024/02/28 02:00:37;;;;;;;15.77;6.57;;;;;;;5.64;95.46;101660.34;5063821;28;20440;-69
2024/02/28 02:03:05;;;;;;;12.93;6.40;;;;;;;5.77;95.76;101656.34;5072466;28;20048;-69
2024/02/28 02:05:32;;;;;;;18.75;6.68;;;;;;;6.00;94.98;101650.59;5069874;28;20056;-70
2024/02/28 02:08:01;;;;;;;14.55;6.18;;;;;;;5.77;94.58;101647.34;5078252;28;20052;-68
2024/02/28 02:10:28;;;;;;;16.60;6.40;;;;;;;5.83;94.71;101643.59;5070131;28;20629;-68
2024/02/28 02:13:04;;;;;;;13.68;6.47;;;;;;;5.66;95.12;101641.78;5054664;28;20060;-68
2024/02/28 02:15:31;;;;;;;18.75;6.28;;;;;;;5.86;94.55;101634.91;5059445;28;20071;-69
2024/02/28 02:17:59;;;;;;;13.77;6.07;;;;;;;6.06;93.66;101624.94;5057396;28;20060;-70
2024/02/28 02:20:30;;;;;;;15.80;6.13;;;;;;;5.97;93.35;101631.97;5084863;28;20056;-69
2024/02/28 02:22:57;;;;;;;17.77;6.93;;;;;;;5.87;93.91;101639.25;5070209;28;20060;-69
2024/02/28 02:25:25;;;;;;;13.73;5.88;;;;;;;5.69;95.15;101643.16;5052347;28;20491;-68
2024/02/28 02:27:52;;;;;;;14.73;6.45;;;;;;;5.49;96.04;101648.44;5035813;28;20056;-69
2024/02/28 02:30:19;;;;;;;14.35;6.30;;;;;;;5.52;96.81;101637.81;5067271;28;20061;-68
2024/02/28 02:32:47;;;;;;;21.05;7.30;;;;;;;5.39;97.80;101637.38;5063253;28;20049;-68
2024/02/28 02:35:17;;;;;;;;;;;;;;;5.59;98.03;101643.06;5070104;28;20914;-69
2024/02/28 02:37:45;;;;;;;13.98;6.00;;;;;;;5.67;96.90;101637.97;5069590;28;19921;-69
2024/02/28 02:40:13;;;;;;;12.73;5.85;;;;;;;5.58;96.97;101635.94;5071575;28;20357;-69
2024/02/28 02:42:40;;;;;;;19.48;6.25;;;;;;;5.76;96.68;101635.59;5070265;28;20715;-69
2024/02/28 02:45:08;;;;;;;16.30;6.65;;;;;;;5.66;95.67;101641.78;5060851;28;20751;-68
2024/02/28 02:47:36;;;;;;;13.23;6.22;;;;;;;5.69;96.36;101649.47;5075516;28;20055;-68
2024/02/28 02:50:05;;;;;;;18.10;6.63;;;;;;;5.50;97.40;101641.88;5063454;28;20467;-68
2024/02/28 02:52:32;;;;;;;16.35;6.55;;;;;;;5.78;97.14;101643.53;5072109;28;20064;-68
2024/02/28 02:54:59;;;;;;;20.10;7.10;;;;;;;5.95;95.98;101644.25;5058283;28;20045;-69
2024/02/28 02:57:27;;;;;;;13.98;6.30;;;;;;;5.99;94.80;101645.38;5069538;28;20063;-69
2024/02/28 02:59:54;;;;;;;16.80;6.28;;;;;;;5.86;94.31;101643.91;5053642;28;20049;-69
2024/02/28 03:02:22;;;;;;;16.10;6.40;;;;;;;5.99;94.99;101645.38;5065970;28;20055;-69
2024/02/28 03:04:49;;;;;;;16.48;5.93;;;;;;;5.91;93.63;101654.06;5035629;28;20073;-68
2024/02/28 03:07:17;;;;;;;14.13;5.95;;;;;;;5.88;94.58;101657.31;5072795;28;20055;-69
2024/02/28 03:09:44;;;;;;;13.95;5.95;;;;;;;5.97;94.28;101664.78;5019272;28;20056;-68
2024/02/28 03:12:11;;;;;;;16.05;6.70;;;;;;;6.14;93.64;101668.22;5061740;28;20064;-70
2024/02/28 03:14:39;;;;;;;20.23;6.47;;;;;;;5.99;93.39;101667.25;5046054;28;20057;-69
2024/02/28 03:17:06;;;;;;;11.70;6.18;;;;;;;6.07;93.60;101667.59;5047223;28;20057;-70
2024/02/28 03:19:35;;;;;;;15.73;5.88;;;;;;;5.95;94.13;101679.78;5047909;28;20547;-70
2024/02/28 03:22:03;;;;;;;14.93;6.13;;;;;;;6.17;93.60;101684.09;5047935;28;20053;-70
2024/02/28 03:24:30;;;;;;;14.38;5.82;;;;;;;5.92;93.31;101691.25;5046533;28;20057;-70
2024/02/28 03:26:57;;;;;;;14.00;5.88;;;;;;;5.92;93.80;101696.72;5048918;28;20053;-70
2024/02/28 03:29:25;;;;;;;13.52;6.20;;;;;;;5.98;93.88;101696.50;5047053;28;20064;-70
2024/02/28 03:31:52;;;;;;;16.98;6.40;;;;;;;5.95;94.61;101699.75;5046934;28;20124;-70
2024/02/28 03:34:19;;;;;;;19.67;6.28;;;;;;;5.96;93.42;101687.75;5049578;28;20065;-70
2024/02/28 03:36:47;;;;;;;16.02;6.28;;;;;;;5.94;93.78;101684.47;5049008;28;20060;-71
2024/02/28 03:39:14;;;;;;;14.63;6.25;;;;;;;6.18;93.15;101684.94;5048402;28;20049;-71
2024/02/28 03:41:42;;;;;;;11.80;6.18;;;;;;;6.02;92.82;101681.25;5048374;28;20045;-69
2024/02/28 03:44:10;;;;;;;14.57;6.22;;;;;;;6.13;91.97;101680.25;5048272;28;20055;-70
2024/02/28 03:46:37;;;;;;;13.00;6.28;;;;;;;5.82;92.93;101688.41;5062999;28;20489;-70
2024/02/28 03:49:05;;;;;;;10.95;5.80;;;;;;;5.69;94.10;101695.94;5044737;28;20049;-70
2024/02/28 03:51:32;;;;;;;14.95;6.00;;;;;;;5.76;94.52;101706.66;5055754;28;20052;-70
2024/02/28 03:54:00;;;;;;;14.32;6.00;;;;;;;5.72;93.73;101702.78;5066573;28;20060;-70
2024/02/28 03:56:28;;;;;;;16.83;6.10;;;;;;;5.83;93.94;101699.09;5066809;28;20056;-70
2024/02/28 03:58:56;;;;;;;14.98;6.20;;;;;;;5.89;93.87;101695.34;5066445;28;20070;-70
2024/02/28 04:01:23;;;;;;;14.63;5.80;;;;;;;6.07;93.02;101692.22;5065184;28;20086;-71
2024/02/28 04:03:50;;;;;;;13.38;6.05;;;;;;;5.99;92.92;101692.72;5065096;28;20052;-70
2024/02/28 04:06:18;;;;;;;15.75;6.40;;;;;;;5.89;92.57;101681.69;5065657;28;20067;-71
2024/02/28 04:08:45;;;;;;;15.20;6.22;;;;;;;5.83;92.71;101679.97;5066390;28;20052;-70
2024/02/28 04:11:13;;;;;;;16.85;6.05;;;;;;;5.75;93.39;101675.75;5067927;28;20456;-71
2024/02/28 04:13:40;;;;;;;15.02;6.97;;;;;;;5.93;92.55;101676.53;5066243;28;20052;-70
2024/02/28 04:16:09;;;;;;;10.48;6.40;;;;;;;5.83;92.60;101670.94;5067809;28;20056;-70
2024/02/28 04:18:36;;;;;;;13.35;6.22;;;;;;;6.08;92.41;101676.66;5066581;28;20048;-72
2024/02/28 04:21:04;;;;;;;20.00;6.57;;;;;;;5.93;92.08;101679.25;5066346;28;20061;-70
2024/02/28 04:23:31;;;;;;;18.13;7.30;;;;;;;6.01;91.78;101681.50;5067489;28;20056;-70
2024/02/28 04:25:59;;;;;;;16.40;6.93;;;;;;;6.07;91.98;101685.91;5067173;28;20059;-70
2024/02/28 04:28:26;;;;;;;19.50;6.53;;;;;;;6.09;91.16;101686.50;5066137;28;20056;-70
2024/02/28 04:30:53;;;;;;;21.58;6.63;;;;;;;5.90;91.31;101697.00;5067652;28;20522;-70
2024/02/28 04:33:21;;;;;;;12.75;6.68;;;;;;;5.88;91.80;101690.13;5067926;28;20052;-69
2024/02/28 04:35:48;;;;;;;18.02;7.18;;;;;;;6.19;91.50;101689.34;5067178;28;20528;-69
2024/02/28 04:38:15;;;;;;;12.93;6.65;;;;;;;5.85;91.34;101696.09;5067656;28;20052;-70
2024/02/28 04:40:43;;;;;;;16.90;6.50;;;;;;;5.87;92.31;101691.22;5065743;28;20056;-70
2024/02/28 04:43:10;;;;;;;13.75;6.70;;;;;;;5.80;92.43;101693.28;5067301;28;20055;-69
2024/02/28 04:45:37;;;;;;;19.40;8.07;;;;;;;5.96;92.09;101695.97;5067161;28;20052;-70
2024/02/28 04:48:07;;;;;;;12.27;6.70;;;;;;;5.72;91.65;101697.31;5067581;28;20872;-70
2024/02/28 04:50:34;;;;;;;13.65;7.05;;;;;;;5.64;93.00;101697.78;5067234;28;20071;-70
2024/02/28 04:53:02;;;;;;;16.67;7.70;;;;;;;5.45;93.88;101701.94;5065577;28;20434;-70
2024/02/28 04:55:29;;;;;;;12.45;7.10;;;;;;;5.48;94.71;101694.06;5065676;28;20052;-70
2024/02/28 04:57:56;;;;;;;17.70;7.32;;;;;;;5.74;94.13;101698.72;5067106;28;20052;-69
2024/02/28 05:00:24;;;;;;;13.65;7.18;;;;;;;5.73;93.60;101704.44;5067111;28;20055;-71
2024/02/28 05:02:52;;;;;;;12.38;7.38;;;;;;;5.69;92.99;101703.28;5067090;28;20048;-70
2024/02/28 05:05:19;;;;;;;12.93;7.60;;;;;;;5.72;92.65;101710.97;5065214;28;20055;-70
2024/02/28 05:07:47;;;;;;;15.25;7.70;;;;;;;5.77;93.08;101702.03;5048867;28;20068;-70
2024/02/28 05:10:14;;;;;;;18.77;7.47;;;;;;;5.73;92.58;101704.44;5069751;28;20044;-70
2024/02/28 05:12:42;;;;;;;20.10;7.47;;;;;;;5.93;92.51;101696.47;5070898;28;20052;-70
2024/02/28 05:15:10;;;;;;;13.75;6.85;;;;;;;5.86;92.16;101704.03;5068208;28;20056;-70
2024/02/28 05:17:37;;;;;;;17.58;7.90;;;;;;;5.66;92.85;101709.28;5070673;28;20048;-70
2024/02/28 05:20:05;;;;;;;19.08;8.20;;;;;;;5.65;92.60;101715.81;5071138;28;20059;-70
2024/02/28 05:22:33;;;;;;;14.57;7.43;;;;;;;5.70;93.12;101716.69;5070764;28;20058;-70
2024/02/28 05:25:00;;;;;;;16.88;7.85;;;;;;;5.62;93.51;101722.63;5069432;28;20059;-71
2024/02/28 05:27:28;;;;;;;24.30;8.50;;;;;;;5.75;93.39;101727.69;5070383;28;20059;-71
2024/02/28 05:29:55;;;;;;;16.23;8.18;;;;;;;5.70;93.15;101730.38;5069410;28;20056;-70
2024/02/28 05:32:23;;;;;;;14.73;8.45;;;;;;;5.71;93.08;101732.03;5070732;28;20052;-69
2024/02/28 05:34:50;;;;;;;17.25;8.35;;;;;;;5.81;92.54;101735.94;5068789;28;20052;-71
2024/02/28 05:37:18;;;;;;;14.60;8.35;;;;;;;5.68;92.64;101735.25;5070631;28;20075;-70
2024/02/28 05:39:45;;;;;;;16.23;8.18;;;;;;;5.46;93.93;101739.09;5068792;28;20048;-70
2024/02/28 05:42:13;;;;;;;17.50;9.00;;;;;;;5.70;94.35;101737.75;5052018;28;20583;-72
2024/02/28 05:44:41;;;;;;;17.17;8.90;;;;;;;5.48;94.01;101736.94;5070452;28;20056;-70
2024/02/28 05:47:09;;;;;;;16.85;8.57;;;;;;;5.40;94.71;101737.41;5051815;28;20056;-69
2024/02/28 05:49:37;;;;;;;17.13;9.02;;;;;;;5.17;95.99;101737.63;5069291;28;20060;-70
2024/02/28 05:52:05;;;;;;;16.27;9.18;;;;;;;5.34;96.65;101722.84;5069244;28;20056;-70
2024/02/28 05:54:34;;;;;;;21.98;9.82;;;;;;;5.27;96.42;101729.56;5070771;28;20060;-70
2024/02/28 05:57:01;;;;;;;18.73;9.30;;;;;;;5.40;96.83;101719.09;5068775;28;20597;-70
2024/02/28 05:59:28;;;;;;;17.13;9.10;;;;;;;5.48;95.64;101718.66;5070469;28;20060;-70
2024/02/28 06:01:55;;;;;;;17.83;8.95;;;;;;;5.42;96.08;101722.38;5069791;28;20079;-70
2024/02/28 06:04:24;;;;;;;18.90;9.25;;;;;;;5.69;95.97;101726.00;5068712;28;20059;-70
2024/02/28 06:06:51;;;;;;;17.10;9.10;;;;;;;5.56;94.76;101722.84;5069906;28;20056;-70
2024/02/28 06:09:18;;;;;;;17.23;9.32;;;;;;;5.44;95.08;101724.88;5070082;28;20056;-71
2024/02/28 06:11:46;;;;;;;17.85;9.15;;;;;;;5.58;95.21;101726.13;5067345;28;20049;-71
2024/02/28 06:14:13;;;;;;;17.13;8.75;;;;;;;5.82;94.06;101724.78;5068189;28;20111;-70
2024/02/28 06:16:40;;;;;;;17.42;9.60;;;;;;;5.82;93.89;101718.47;5068187;28;20072;-70
2024/02/28 06:19:08;;;;;;;17.50;8.75;;;;;;;6.00;92.92;101729.88;5051580;28;20099;-71
2024/02/28 06:21:35;;;;;;;22.00;9.80;;;;;;;5.89;91.91;101722.69;5051313;28;20055;-69
2024/02/28 06:24:04;;;;;;;22.23;10.13;;;;;;;5.45;93.60;101727.38;5069421;28;20044;-69
2024/02/28 06:26:31;;;;;;;18.15;9.13;;;;;;;5.69;94.47;101736.09;5052093;28;20514;-69
2024/02/28 06:29:01;;;;;;;21.48;9.23;;;;;;;5.61;93.94;101734.63;5067961;28;20052;-69
2024/02/28 06:31:32;;;;;;;21.90;9.45;;;;;;;5.60;95.47;101740.34;5069557;28;20075;-70
2024/02/28 06:34:00;;;;;;;17.63;9.68;;;;;;;5.37;95.67;101746.09;5069855;28;20051;-69
2024/02/28 06:36:27;;;;;;;23.25;10.45;;;;;;;5.22;96.51;101743.16;5051967;28;20059;-70
2024/02/28 06:38:55;;;;;;;20.23;10.07;;;;;;;5.42;96.00;101757.09;5070274;28;20052;-68
2024/02/28 06:41:22;;;;;;;20.88;10.63;;;;;;;5.42;96.28;101757.91;5070523;28;20454;-69
2024/02/28 06:43:50;;;;;;;22.67;9.70;;;;;;;5.46;96.04;101764.50;5069819;28;20063;-70
2024/02/28 06:46:17;;;;;;;20.08;9.93;;;;;;;5.50;96.32;101756.63;5070389;28;20056;-70
2024/02/28 06:48:45;;;;;;;29.67;10.48;;;;;;;5.59;95.60;101755.13;5067752;28;20051;-71
2024/02/28 06:51:12;;;;;;;24.60;10.48;;;;;;;5.76;95.78;101769.53;5068772;28;20059;-70
2024/02/28 06:53:44;;;;;;;22.60;9.50;;;;;;;5.49;96.08;101766.72;5051751;28;20052;-70
2024/02/28 06:56:11;;;;;;;19.25;10.32;;;;;;;5.51;96.42;101774.66;5051440;28;20381;-69
2024/02/28 06:58:38;;;;;;;21.17;10.70;;;;;;;5.71;96.74;101764.84;5067356;28;20072;-68
2024/02/28 07:01:06;;;;;;;22.17;10.52;;;;;;;5.96;95.76;101763.50;5070864;28;20374;-68
2024/02/28 07:03:35;;;;;;;21.15;10.65;;;;;;;6.16;94.58;101772.72;5066989;28;20072;-68
2024/02/28 07:06:03;;;;;;;23.55;10.45;;;;;;;6.30;93.04;101773.13;5051040;28;20071;-67
2024/02/28 07:08:32;;;;;;;20.10;10.27;;;;;;;6.05;93.56;101768.22;5068548;28;20048;-70
2024/02/28 07:10:59;;;;;;;20.25;10.70;;;;;;;6.17;92.93;101765.34;5069130;28;20048;-69
2024/02/28 07:13:27;;;;;;;25.10;10.05;;;;;;;6.19;93.49;101765.94;5068251;28;20055;-73
2024/02/28 07:15:54;;;;;;;19.52;10.90;;;;;;;6.29;93.41;101768.75;5058990;28;20049;-70
2024/02/28 07:18:25;;;;;;;16.92;8.98;;;;;;;6.49;92.15;101764.28;5055049;28;20048;-72
2024/02/28 07:20:52;;;;;;;19.45;9.75;;;;;;;6.39;91.46;101761.47;5063083;28;20068;-68
2024/02/28 07:23:20;;;;;;;17.60;9.55;;;;;;;6.13;92.77;101765.03;5066886;28;20047;-68
2024/02/28 07:25:47;;;;;;;20.50;10.18;;;;;;;6.22;93.05;101768.97;5067454;28;20048;-69
2024/02/28 07:28:14;;;;;;;23.17;10.55;;;;;;;6.35;92.72;101774.00;5066496;28;20068;-67
2024/02/28 07:30:44;;;;;;;19.80;10.27;;;;;;;6.23;92.89;101767.88;5053074;28;20044;-67
2024/02/28 07:33:14;;;;;;;18.45;10.23;;;;;;;6.55;92.56;101765.97;5030741;28;20041;-70
2024/02/28 07:35:46;;;;;;;23.15;10.20;;;;;;;6.54;92.00;101771.69;5068901;28;20048;-68
2024/02/28 07:38:15;;;;;;;18.10;9.93;;;;;;;6.57;91.39;101766.53;5071485;28;20055;-67
2024/02/28 07:40:43;;;;;;;20.05;10.82;;;;;;;6.58;90.84;101762.72;5066935;28;20041;-68
2024/02/28 07:43:11;;;;;;;21.65;10.77;;;;;;;6.58;90.96;101768.19;5046573;28;20060;-67
2024/02/28 07:45:39;;;;;;;22.10;10.45;;;;;;;6.62;91.51;101777.53;5064362;28;20056;-68
2024/02/28 07:48:06;;;;;;;22.30;10.65;;;;;;;6.54;91.81;101774.44;5066532;28;20056;-69
2024/02/28 07:50:34;;;;;;;24.63;10.65;;;;;;;6.49;91.63;101783.44;5064688;28;20060;-70
2024/02/28 07:53:04;;;;;;;20.05;10.82;;;;;;;6.44;92.41;101777.91;5049214;28;20063;-69
2024/02/28 07:55:31;;;;;;;;;;;;;;;6.42;92.25;101782.81;5068352;28;20059;-69
2024/02/28 07:57:59;;;;;;;22.70;11.13;;;;;;;6.56;92.04;101784.03;5065175;28;19924;-70
2024/02/28 08:00:26;;;;;;;23.45;11.63;;;;;;;6.54;92.18;101779.91;5063598;28;20068;-67
2024/02/28 08:02:54;;;;;;;20.70;11.65;;;;;;;6.49;92.07;101786.16;5058488;28;20069;-69
2024/02/28 08:05:21;;;;;;;21.75;12.10;;;;;;;6.41;93.01;101788.56;5062096;28;20061;-70
2024/02/28 08:07:48;;;;;;;19.65;11.13;;;;;;;6.36;94.06;101785.78;5068164;28;20055;-69
2024/02/28 08:10:16;;;;;;;23.90;11.68;;;;;;;6.57;93.13;101793.91;5060189;28;20534;-69
2024/02/28 08:12:43;;;;;;;20.95;11.13;;;;;;;6.78;92.30;101795.72;5033233;28;20131;-68
2024/02/28 08:15:11;;;;;;;23.02;11.23;;;;;;;6.91;91.19;101807.31;5067189;28;20041;-68
2024/02/28 08:17:38;;;;;;;25.85;12.18;;;;;;;6.88;91.04;101807.84;5068780;28;20522;-68
2024/02/28 08:20:08;;;;;;;28.67;12.25;;;;;;;7.05;91.00;101803.84;5062374;28;20546;-68
2024/02/28 08:22:35;;;;;;;23.05;12.73;;;;;;;7.23;90.34;101810.81;5062943;28;20064;-67
2024/02/28 08:25:02;;;;;;;29.00;11.98;;;;;;;7.25;89.88;101809.50;5062894;28;20044;-66
2024/02/28 08:27:30;;;;;;;24.92;11.85;;;;;;;7.49;89.06;101807.13;5066869;28;20052;-65
2024/02/28 08:29:59;;;;;;;24.30;11.90;;;;;;;7.32;88.39;101807.31;5049562;28;20056;-68
2024/02/28 08:32:27;;;;;;;33.35;12.55;;;;;;;7.58;88.67;101802.81;5063996;28;20055;-67
2024/02/28 08:34:54;;;;;;;23.42;12.98;;;;;;;7.44;87.73;101821.66;5055381;28;20044;-68
2024/02/28 08:37:22;;;;;;;25.80;11.85;;;;;;;7.57;87.84;101817.59;5066893;28;20075;-69
2024/02/28 08:39:49;;;;;;;24.58;12.98;;;;;;;7.47;87.50;101818.38;5061559;28;20510;-69
2024/02/28 08:42:17;;;;;;;30.40;14.43;;;;;;;7.77;87.21;101818.53;5061500;28;20057;-69
2024/02/28 08:44:47;;;;;;;35.92;19.17;;;;;;;7.86;85.95;101810.59;5060564;28;20041;-69
2024/02/28 08:47:15;;;;;;;31.45;12.98;;;;;;;7.84;86.06;101812.78;5070734;28;20542;-69
2024/02/28 08:49:42;;;;;;;29.35;12.57;;;;;;;7.76;86.06;101805.06;5066674;28;20061;-69
2024/02/28 08:52:10;;;;;;;30.73;12.95;;;;;;;7.93;85.77;101800.22;5072933;28;20686;-69
2024/02/28 08:54:39;;;;;;;25.25;12.65;;;;;;;7.84;86.02;101794.41;5072685;28;20037;-70
2024/02/28 08:57:07;;;;;;;26.80;12.23;;;;;;;7.73;85.95;101792.72;5074773;28;20447;-69
2024/02/28 08:59:34;;;;;;;31.35;12.90;;;;;;;7.60;86.56;101792.41;5069803;28;20598;-69
2024/02/28 09:02:03;;;;;;;27.08;12.93;;;;;;;7.86;86.81;101796.88;5069158;28;20052;-69
2024/02/28 09:04:30;;;;;;;26.20;13.63;;;;;;;7.83;86.13;101791.91;5074800;28;20041;-69
2024/02/28 09:06:58;;;;;;;21.10;11.95;;;;;;;8.00;86.08;101790.59;5042086;28;20049;-69
2024/02/28 09:09:26;;;;;;;27.02;16.70;;;;;;;7.99;85.62;101793.63;5073077;28;20063;-71
2024/02/28 09:11:53;;;;;;;28.55;13.88;;;;;;;8.04;85.36;101793.63;5070138;28;20051;-72
2024/02/28 09:14:21;;;;;;;25.70;12.15;;;;;;;8.13;85.32;101800.25;5073495;28;20057;-71
2024/02/28 09:16:49;;;;;;;20.38;11.30;;;;;;;8.14;85.14;101799.16;5059729;28;20053;-71
2024/02/28 09:19:17;;;;;;;26.40;11.10;;;;;;;8.30;84.42;101805.53;5065270;28;20436;-71
2024/02/28 09:21:45;;;;;;;26.73;11.75;;;;;;;8.31;84.44;101794.28;5068121;28;20484;-72
2024/02/28 09:24:15;;;;;;;18.83;12.05;;;;;;;8.48;83.54;101794.03;5058457;28;20393;-71
2024/02/28 09:26:43;;;;;;;21.02;10.85;;;;;;;8.65;83.21;101798.16;5050855;28;20053;-70
2024/02/28 09:29:10;;;;;;;35.05;21.90;;;;;;;8.82;82.41;101797.91;5034031;28;20061;-69
2024/02/28 09:31:38;;;;;;;22.52;12.45;;;;;;;8.79;81.67;101802.00;5070105;28;20554;-67
2024/02/28 09:34:07;;;;;;;31.65;10.90;;;;;;;8.90;81.61;101805.56;5066821;28;20464;-68
2024/02/28 09:36:45;;;;;;;19.90;8.70;;;;;;;8.98;80.61;101808.59;5056123;28;20044;-69
2024/02/28 09:39:17;;;;;;;17.77;6.93;;;;;;;9.18;80.27;101802.25;5060713;28;20060;-68
2024/02/28 09:41:48;;;;;;;12.38;6.60;;;;;;;9.24;78.97;101800.31;5071515;28;20546;-69
2024/02/28 09:44:18;;;;;;;18.40;7.22;;;;;;;9.07;78.74;101817.91;5070376;28;20079;-69
2024/02/28 09:46:45;;;;;;;15.52;7.15;;;;;;;9.23;78.16;101810.47;5033223;28;20076;-70
2024/02/28 09:49:13;;;;;;;13.90;7.40;;;;;;;9.26;78.44;101812.66;5050999;28;20072;-68
2024/02/28 09:51:41;;;;;;;29.10;8.10;;;;;;;9.18;78.43;101813.22;5054561;28;20158;-69
2024/02/28 09:54:08;;;;;;;20.48;6.85;;;;;;;9.23;77.56;101810.47;5053991;28;20071;-68
2024/02/28 09:56:36;;;;;;;12.70;6.28;;;;;;;9.42;77.54;101803.28;5069406;28;20046;-69
2024/02/28 09:59:03;;;;;;;18.30;6.82;;;;;;;9.38;77.19;101801.38;5069978;28;20052;-68
2024/02/28 10:01:37;;;;;;;16.33;6.40;;;;;;;9.72;76.97;101805.09;5070059;28;20827;-67
2024/02/28 10:04:04;;;;;;;16.45;6.43;;;;;;;9.79;76.31;101809.22;5050350;28;20057;-73
2024/02/28 10:06:32;;;;;;;14.95;6.88;;;;;;;9.87;75.97;101802.28;5057740;28;20048;-71
2024/02/28 10:08:59;;;;;;;15.48;7.00;;;;;;;10.02;75.64;101799.47;5069399;28;20064;-71
2024/02/28 10:11:29;;;;;;;15.45;7.10;;;;;;;10.35;75.26;101798.75;5070948;28;20048;-73
2024/02/28 10:13:59;;;;;;;20.50;7.82;;;;;;;10.38;73.79;101802.84;5071719;28;20498;-74
2024/02/28 10:16:26;;;;;;;14.52;7.50;;;;;;;10.61;73.12;101805.72;5069487;28;20079;-75
2024/02/28 10:18:53;;;;;;;14.52;7.95;;;;;;;10.68;72.51;101805.38;5057129;28;20040;-73
2024/02/28 10:21:21;;;;;;;15.57;8.25;;;;;;;10.95;72.14;101803.78;5067534;28;20063;-70
2024/02/28 10:23:49;;;;;;;20.00;8.98;;;;;;;10.62;72.25;101798.25;5067664;28;20856;-71
2024/02/28 10:26:17;;;;;;;17.25;9.02;;;;;;;10.72;72.95;101795.44;5071038;28;20048;-69
2024/02/28 10:28:45;;;;;;;20.80;9.15;;;;;;;10.71;72.55;101800.13;5066663;28;20040;-68
2024/02/28 10:31:14;;;;;;;20.20;8.02;;;;;;;10.71;72.54;101805.63;5069282;28;20056;-70
2024/02/28 10:33:41;;;;;;;14.30;7.63;;;;;;;10.94;72.37;101804.06;5023331;28;20052;-70
2024/02/28 10:36:10;;;;;;;16.58;7.75;;;;;;;10.74;72.40;101809.75;5067911;28;20049;-69
2024/02/28 10:38:39;;;;;;;11.37;3.47;;;;;;;10.44;68.08;101812.72;5046486;28;20052;-69
2024/02/28 10:41:06;;;;;;;6.68;2.85;;;;;;;10.72;67.92;101815.53;5070391;28;20052;-69
2024/02/28 10:43:39;;;;;;;10.30;2.95;;;;;;;10.82;67.48;101804.44;5069800;28;20044;-69
2024/02/28 10:46:09;;;;;;;7.53;3.20;;;;;;;11.09;67.11;101815.78;5053565;28;20059;-69
2024/02/28 10:48:57;;;;;;;6.57;2.83;;;;;;;11.15;66.25;101813.78;5071045;28;20041;-69
2024/02/28 10:51:27;;;;;;;8.85;3.17;;;;;;;11.03;65.57;101810.59;5054110;28;20071;-68
2024/02/28 10:54:04;;;;;;;11.90;2.80;;;;;;;11.00;67.05;101811.19;5045096;28;20564;-69
2024/02/28 10:56:32;;;;;;;11.65;3.22;;;;;;;11.09;66.64;101818.53;5068969;28;20507;-69
2024/02/28 10:59:00;;;;;;;14.43;3.50;;;;;;;11.16;67.04;101809.91;5062851;28;20048;-69
2024/02/28 11:01:28;;;;;;;14.07;3.20;;;;;;;11.01;67.45;101810.06;5073431;28;20507;-70
2024/02/28 11:03:56;;;;;;;14.50;3.10;;;;;;;10.87;67.79;101815.44;5054363;28;20056;-69
2024/02/28 11:06:24;;;;;;;8.82;3.10;;;;;;;11.10;68.06;101825.69;5068500;28;20040;-68
2024/02/28 11:08:56;;;;;;;10.32;3.03;;;;;;;11.19;67.20;101831.41;5053342;28;20058;-70
2024/02/28 11:11:24;;;;;;;8.48;2.65;;;;;;;11.66;65.63;101827.91;5068936;28;20053;-68
2024/02/28 11:13:56;;;;;;;10.07;2.88;;;;;;;11.31;65.73;101827.13;5069050;28;20049;-69
2024/02/28 11:16:31;;;;;;;13.88;5.07;;;;;;;11.38;66.48;101829.56;5068273;28;20049;-69
2024/02/28 11:19:01;;;;;;;49.03;25.15;;;;;;;11.36;66.45;101834.53;5051430;28;20068;-69
2024/02/28 11:21:29;;;;;;;40.03;21.55;;;;;;;11.33;67.21;101830.41;5070531;28;20052;-69
2024/02/28 11:24:00;;;;;;;23.60;12.88;;;;;;;11.46;66.04;101830.84;5069332;28;20063;-69
2024/02/28 11:26:28;;;;;;;15.63;6.63;;;;;;;11.62;65.19;101832.31;5068008;28;20045;-70